sensor_id;sensor_type;location;lat;lon;timestamp;pressure;altitude;pressure_sealevel;temperature;humidity
75418;BME280;63997;52.112;5.420;2023-03-08T00:01:44;100216.97;;;-1.33;90.89
75418;BME280;63997;52.112;5.420;2023-03-08T00:04:10;100222.22;;;-1.27;91.03
75418;BME280;63997;52.112;5.420;2023-03-08T00:06:37;100230.03;;;-1.27;90.88
75418;BME280;63997;52.112;5.420;2023-03-08T00:09:03;100217.78;;;-1.27;90.91
75418;BME280;63997;52.112;5.420;2023-03-08T00:11:30;100210.22;;;-1.28;90.76
75418;BME280;63997;52.112;5.420;2023-03-08T00:13:57;100217.00;;;-1.27;90.84
75418;BME280;63997;52.112;5.420;2023-03-08T00:16:23;100220.41;;;-1.27;90.64
75418;BME280;63997;52.112;5.420;2023-03-08T00:18:50;100228.16;;;-1.37;90.43
75418;BME280;63997;52.112;5.420;2023-03-08T00:21:18;100225.28;;;-1.41;90.14
75418;BME280;63997;52.112;5.420;2023-03-08T00:23:44;100220.06;;;-1.46;90.20
75418;BME280;63997;52.112;5.420;2023-03-08T00:26:11;100219.47;;;-1.58;89.97
75418;BME280;63997;52.112;5.420;2023-03-08T00:28:38;100209.00;;;-1.63;89.79
75418;BME280;63997;52.112;5.420;2023-03-08T00:31:07;100217.63;;;-1.68;89.88
75418;BME280;63997;52.112;5.420;2023-03-08T00:33:34;100212.41;;;-1.68;89.87
75418;BME280;63997;52.112;5.420;2023-03-08T00:36:02;100217.06;;;-1.70;89.82
75418;BME280;63997;52.112;5.420;2023-03-08T00:38:34;100224.88;;;-1.70;89.95
75418;BME280;63997;52.112;5.420;2023-03-08T00:41:01;100210.53;;;-1.72;90.02
75418;BME280;63997;52.112;5.420;2023-03-08T00:43:28;100212.59;;;-1.74;90.07
75418;BME280;63997;52.112;5.420;2023-03-08T00:45:55;100218.63;;;-1.74;90.04
75418;BME280;63997;52.112;5.420;2023-03-08T00:48:22;100217.56;;;-1.78;89.83
75418;BME280;63997;52.112;5.420;2023-03-08T00:50:49;100213.59;;;-1.80;90.04
75418;BME280;63997;52.112;5.420;2023-03-08T00:53:15;100207.38;;;-1.79;90.14
75418;BME280;63997;52.112;5.420;2023-03-08T00:55:56;100212.03;;;-1.81;90.08
75418;BME280;63997;52.112;5.420;2023-03-08T00:58:24;100204.97;;;-1.86;90.05
75418;BME280;63997;52.112;5.420;2023-03-08T01:00:51;100198.97;;;-1.87;90.19
75418;BME280;63997;52.112;5.420;2023-03-08T01:03:18;100200.31;;;-1.84;90.15
75418;BME280;63997;52.112;5.420;2023-03-08T01:05:49;100192.72;;;-1.86;89.92
75418;BME280;63997;52.112;5.420;2023-03-08T01:08:17;100192.47;;;-1.89;90.35
75418;BME280;63997;52.112;5.420;2023-03-08T01:10:52;100194.78;;;-1.93;90.12
75418;BME280;63997;52.112;5.420;2023-03-08T01:13:20;100178.59;;;-2.00;90.21
75418;BME280;63997;52.112;5.420;2023-03-08T01:15:46;100184.88;;;-1.96;90.40
75418;BME280;63997;52.112;5.420;2023-03-08T01:18:13;100176.56;;;-1.88;90.56
75418;BME280;63997;52.112;5.420;2023-03-08T01:20:39;100163.88;;;-1.79;90.83
75418;BME280;63997;52.112;5.420;2023-03-08T01:23:06;100157.88;;;-1.74;90.93
75418;BME280;63997;52.112;5.420;2023-03-08T01:25:32;100163.63;;;-1.72;90.98
75418;BME280;63997;52.112;5.420;2023-03-08T01:28:22;100169.34;;;-1.75;90.90
75418;BME280;63997;52.112;5.420;2023-03-08T01:30:49;100168.78;;;-1.82;90.70
75418;BME280;63997;52.112;5.420;2023-03-08T01:33:15;100164.31;;;-1.92;90.44
75418;BME280;63997;52.112;5.420;2023-03-08T01:35:41;100165.06;;;-1.97;90.21
75418;BME280;63997;52.112;5.420;2023-03-08T01:38:08;100166.13;;;-1.93;90.30
75418;BME280;63997;52.112;5.420;2023-03-08T01:40:34;100158.34;;;-1.88;90.28
75418;BME280;63997;52.112;5.420;2023-03-08T01:43:19;100153.16;;;-1.82;90.69
75418;BME280;63997;52.112;5.420;2023-03-08T01:48:43;100142.25;;;-1.79;90.86
75418;BME280;63997;52.112;5.420;2023-03-08T01:51:13;100139.88;;;-1.81;90.79
75418;BME280;63997;52.112;5.420;2023-03-08T01:53:42;100137.03;;;-1.79;90.79
75418;BME280;63997;52.112;5.420;2023-03-08T01:56:11;100141.97;;;-1.78;90.94
75418;BME280;63997;52.112;5.420;2023-03-08T01:58:39;100129.22;;;-1.79;90.86
75418;BME280;63997;52.112;5.420;2023-03-08T02:01:06;100122.41;;;-1.80;90.73
75418;BME280;63997;52.112;5.420;2023-03-08T02:03:33;100110.41;;;-1.81;90.73
75418;BME280;63997;52.112;5.420;2023-03-08T02:06:00;100116.19;;;-1.79;90.83
75418;BME280;63997;52.112;5.420;2023-03-08T02:08:29;100113.03;;;-1.81;90.76
75418;BME280;63997;52.112;5.420;2023-03-08T02:10:56;100112.72;;;-1.95;90.31
75418;BME280;63997;52.112;5.420;2023-03-08T02:13:23;100106.16;;;-2.03;90.14
75418;BME280;63997;52.112;5.420;2023-03-08T02:15:51;100108.16;;;-2.15;89.72
75418;BME280;63997;52.112;5.420;2023-03-08T02:18:21;100092.03;;;-2.17;89.78
75418;BME280;63997;52.112;5.420;2023-03-08T02:20:49;100092.06;;;-2.12;89.86
75418;BME280;63997;52.112;5.420;2023-03-08T02:23:17;100096.75;;;-2.09;89.90
75418;BME280;63997;52.112;5.420;2023-03-08T02:28:20;100094.84;;;-2.24;89.82
75418;BME280;63997;52.112;5.420;2023-03-08T02:30:47;100092.44;;;-2.30;89.79
75418;BME280;63997;52.112;5.420;2023-03-08T02:33:15;100089.63;;;-2.29;90.03
75418;BME280;63997;52.112;5.420;2023-03-08T02:35:42;100085.69;;;-2.31;89.81
75418;BME280;63997;52.112;5.420;2023-03-08T02:38:11;100088.81;;;-2.34;89.69
75418;BME280;63997;52.112;5.420;2023-03-08T02:40:38;100089.28;;;-2.37;89.63
75418;BME280;63997;52.112;5.420;2023-03-08T02:43:05;100079.19;;;-2.34;90.08
75418;BME280;63997;52.112;5.420;2023-03-08T02:45:33;100069.56;;;-2.28;89.96
75418;BME280;63997;52.112;5.420;2023-03-08T02:48:01;100071.66;;;-2.25;90.08
75418;BME280;63997;52.112;5.420;2023-03-08T02:50:27;100072.69;;;-2.26;90.09
75418;BME280;63997;52.112;5.420;2023-03-08T02:52:54;100067.00;;;-2.23;90.03
75418;BME280;63997;52.112;5.420;2023-03-08T02:55:20;100065.44;;;-2.24;89.68
75418;BME280;63997;52.112;5.420;2023-03-08T02:57:47;100060.22;;;-2.19;89.99
75418;BME280;63997;52.112;5.420;2023-03-08T03:00:13;100064.94;;;-2.16;90.35
75418;BME280;63997;52.112;5.420;2023-03-08T03:02:39;100059.50;;;-2.09;90.45
75418;BME280;63997;52.112;5.420;2023-03-08T03:05:07;100063.44;;;-2.07;90.50
75418;BME280;63997;52.112;5.420;2023-03-08T03:07:40;100059.81;;;-2.01;90.54
75418;BME280;63997;52.112;5.420;2023-03-08T03:10:10;100063.97;;;-2.00;90.68
75418;BME280;63997;52.112;5.420;2023-03-08T03:12:37;100072.81;;;-2.01;90.64
75418;BME280;63997;52.112;5.420;2023-03-08T03:15:05;100070.97;;;-2.05;90.52
75418;BME280;63997;52.112;5.420;2023-03-08T03:17:33;100070.69;;;-2.09;90.40
75418;BME280;63997;52.112;5.420;2023-03-08T03:19:59;100070.16;;;-2.16;90.13
75418;BME280;63997;52.112;5.420;2023-03-08T03:22:26;100059.72;;;-2.16;90.31
75418;BME280;63997;52.112;5.420;2023-03-08T03:24:53;100058.94;;;-2.17;90.20
75418;BME280;63997;52.112;5.420;2023-03-08T03:27:19;100063.38;;;-2.17;90.20
75418;BME280;63997;52.112;5.420;2023-03-08T03:29:45;100055.00;;;-2.19;90.27
75418;BME280;63997;52.112;5.420;2023-03-08T03:32:12;100058.88;;;-2.27;90.08
75418;BME280;63997;52.112;5.420;2023-03-08T03:34:39;100059.13;;;-2.33;89.91
75418;BME280;63997;52.112;5.420;2023-03-08T03:37:05;100052.59;;;-2.36;90.13
75418;BME280;63997;52.112;5.420;2023-03-08T03:39:36;100042.50;;;-2.27;90.23
75418;BME280;63997;52.112;5.420;2023-03-08T03:42:06;100039.16;;;-2.18;90.59
75418;BME280;63997;52.112;5.420;2023-03-08T03:44:33;100032.66;;;-2.10;90.73
75418;BME280;63997;52.112;5.420;2023-03-08T03:46:59;100023.31;;;-2.06;91.04
75418;BME280;63997;52.112;5.420;2023-03-08T03:49:25;100023.06;;;-1.99;91.11
75418;BME280;63997;52.112;5.420;2023-03-08T03:51:52;100027.25;;;-1.93;91.39
75418;BME280;63997;52.112;5.420;2023-03-08T03:54:18;100008.25;;;-1.89;91.29
75418;BME280;63997;52.112;5.420;2023-03-08T03:56:45;100008.00;;;-1.82;91.63
75418;BME280;63997;52.112;5.420;2023-03-08T03:59:11;100008.28;;;-1.78;91.65
75418;BME280;63997;52.112;5.420;2023-03-08T04:01:37;100003.59;;;-1.71;91.76
75418;BME280;63997;52.112;5.420;2023-03-08T04:04:04;100003.09;;;-1.68;91.83
75418;BME280;63997;52.112;5.420;2023-03-08T04:06:32;100009.31;;;-1.69;91.86
75418;BME280;63997;52.112;5.420;2023-03-08T04:09:04;100013.53;;;-1.68;92.02
75418;BME280;63997;52.112;5.420;2023-03-08T04:11:34;100011.72;;;-1.63;92.34
75418;BME280;63997;52.112;5.420;2023-03-08T04:14:01;100006.25;;;-1.56;92.49
75418;BME280;63997;52.112;5.420;2023-03-08T04:16:33;100007.81;;;-1.50;92.72
75418;BME280;63997;52.112;5.420;2023-03-08T04:19:02;100010.44;;;-1.45;92.94
75418;BME280;63997;52.112;5.420;2023-03-08T04:21:29;100014.06;;;-1.41;92.94
75418;BME280;63997;52.112;5.420;2023-03-08T04:23:56;100006.25;;;-1.36;93.09
75418;BME280;63997;52.112;5.420;2023-03-08T04:26:25;100013.03;;;-1.29;93.21
75418;BME280;63997;52.112;5.420;2023-03-08T04:28:52;100002.88;;;-1.26;93.36
75418;BME280;63997;52.112;5.420;2023-03-08T04:31:25;99997.38;;;-1.24;93.21
75418;BME280;63997;52.112;5.420;2023-03-08T04:33:52;99997.66;;;-1.26;93.17
75418;BME280;63997;52.112;5.420;2023-03-08T04:36:19;99993.75;;;-1.23;93.25
75418;BME280;63997;52.112;5.420;2023-03-08T04:38:46;99996.31;;;-1.18;93.25
75418;BME280;63997;52.112;5.420;2023-03-08T04:41:13;99984.88;;;-1.12;93.44
75418;BME280;63997;52.112;5.420;2023-03-08T04:43:48;99987.22;;;-1.11;93.49
75418;BME280;63997;52.112;5.420;2023-03-08T04:46:17;99982.78;;;-1.10;93.33
75418;BME280;63997;52.112;5.420;2023-03-08T04:48:44;99968.16;;;-1.11;93.32
75418;BME280;63997;52.112;5.420;2023-03-08T04:51:12;99968.94;;;-1.05;93.50
75418;BME280;63997;52.112;5.420;2023-03-08T04:53:39;99962.94;;;-1.01;93.45
75418;BME280;63997;52.112;5.420;2023-03-08T04:56:07;99954.06;;;-0.95;93.56
75418;BME280;63997;52.112;5.420;2023-03-08T04:58:35;99951.97;;;-0.98;93.53
75418;BME280;63997;52.112;5.420;2023-03-08T05:01:13;99953.28;;;-0.95;93.41
75418;BME280;63997;52.112;5.420;2023-03-08T05:03:40;99942.03;;;-0.96;93.40
75418;BME280;63997;52.112;5.420;2023-03-08T05:06:08;99938.91;;;-0.93;93.58
75418;BME280;63997;52.112;5.420;2023-03-08T05:08:35;99937.34;;;-0.89;93.61
75418;BME280;63997;52.112;5.420;2023-03-08T05:11:02;99930.78;;;-0.86;93.41
75418;BME280;63997;52.112;5.420;2023-03-08T05:13:33;99929.75;;;-0.90;93.34
75418;BME280;63997;52.112;5.420;2023-03-08T05:16:01;99934.22;;;-0.96;93.30
75418;BME280;63997;52.112;5.420;2023-03-08T05:18:27;99928.47;;;-0.98;93.12
75418;BME280;63997;52.112;5.420;2023-03-08T05:21:02;99917.53;;;-0.95;93.15
75418;BME280;63997;52.112;5.420;2023-03-08T05:23:28;99921.97;;;-0.95;93.17
75418;BME280;63997;52.112;5.420;2023-03-08T05:25:57;99915.44;;;-0.93;93.05
75418;BME280;63997;52.112;5.420;2023-03-08T05:28:25;99900.53;;;-0.92;93.06
75418;BME280;63997;52.112;5.420;2023-03-08T05:31:05;99883.59;;;-0.90;93.01
75418;BME280;63997;52.112;5.420;2023-03-08T05:33:34;99890.88;;;-0.92;92.89
75418;BME280;63997;52.112;5.420;2023-03-08T05:36:00;99886.22;;;-0.95;92.85
75418;BME280;63997;52.112;5.420;2023-03-08T05:38:27;99877.63;;;-1.00;92.94
75418;BME280;63997;52.112;5.420;2023-03-08T05:40:53;99883.63;;;-1.00;92.92
75418;BME280;63997;52.112;5.420;2023-03-08T05:43:20;99878.13;;;-1.03;92.91
75418;BME280;63997;52.112;5.420;2023-03-08T05:45:58;99864.03;;;-1.02;92.93
75418;BME280;63997;52.112;5.420;2023-03-08T05:48:26;99848.13;;;-1.01;92.83
75418;BME280;63997;52.112;5.420;2023-03-08T05:50:54;99849.16;;;-0.97;93.21
75418;BME280;63997;52.112;5.420;2023-03-08T05:53:21;99841.84;;;-0.95;92.98
75418;BME280;63997;52.112;5.420;2023-03-08T05:55:48;99828.03;;;-0.95;93.19
75418;BME280;63997;52.112;5.420;2023-03-08T05:58:14;99826.19;;;-0.95;93.12
75418;BME280;63997;52.112;5.420;2023-03-08T06:00:41;99828.81;;;-0.95;93.10
75418;BME280;63997;52.112;5.420;2023-03-08T06:03:07;99822.81;;;-0.95;93.15
75418;BME280;63997;52.112;5.420;2023-03-08T06:05:34;99829.31;;;-0.93;93.11
75418;BME280;63997;52.112;5.420;2023-03-08T06:08:00;99823.81;;;-0.91;93.31
75418;BME280;63997;52.112;5.420;2023-03-08T06:10:27;99816.53;;;-0.89;93.19
75418;BME280;63997;52.112;5.420;2023-03-08T06:12:53;99821.19;;;-0.86;93.24
75418;BME280;63997;52.112;5.420;2023-03-08T06:15:20;99819.63;;;-0.87;93.42
75418;BME280;63997;52.112;5.420;2023-03-08T06:17:52;99814.91;;;-0.85;93.44
75418;BME280;63997;52.112;5.420;2023-03-08T06:20:19;99811.00;;;-0.83;93.32
75418;BME280;63997;52.112;5.420;2023-03-08T06:22:46;99809.44;;;-0.84;93.35
75418;BME280;63997;52.112;5.420;2023-03-08T06:25:12;99806.28;;;-0.81;93.47
75418;BME280;63997;52.112;5.420;2023-03-08T06:27:39;99806.56;;;-0.82;93.49
75418;BME280;63997;52.112;5.420;2023-03-08T06:30:05;99808.13;;;-0.81;93.51
75418;BME280;63997;52.112;5.420;2023-03-08T06:32:33;99817.25;;;-0.78;93.47
75418;BME280;63997;52.112;5.420;2023-03-08T06:35:05;99807.06;;;-0.80;93.52
75418;BME280;63997;52.112;5.420;2023-03-08T06:37:35;99808.38;;;-0.77;93.46
75418;BME280;63997;52.112;5.420;2023-03-08T06:40:01;99812.25;;;-0.75;93.65
75418;BME280;63997;52.112;5.420;2023-03-08T06:42:29;99811.97;;;-0.68;93.66
75418;BME280;63997;52.112;5.420;2023-03-08T06:45:06;99809.31;;;-0.63;93.84
75418;BME280;63997;52.112;5.420;2023-03-08T06:47:33;99807.50;;;-0.63;93.72
75418;BME280;63997;52.112;5.420;2023-03-08T06:49:59;99808.25;;;-0.62;93.66
75418;BME280;63997;52.112;5.420;2023-03-08T06:52:26;99814.03;;;-0.60;93.48
75418;BME280;63997;52.112;5.420;2023-03-08T06:54:52;99801.75;;;-0.60;93.75
75418;BME280;63997;52.112;5.420;2023-03-08T06:57:18;99811.13;;;-0.59;93.71
75418;BME280;63997;52.112;5.420;2023-03-08T06:59:45;99800.94;;;-0.55;93.75
75418;BME280;63997;52.112;5.420;2023-03-08T07:02:11;99809.28;;;-0.53;93.65
75418;BME280;63997;52.112;5.420;2023-03-08T07:04:37;99807.69;;;-0.49;93.75
75418;BME280;63997;52.112;5.420;2023-03-08T07:07:04;99809.25;;;-0.48;93.57
75418;BME280;63997;52.112;5.420;2023-03-08T07:09:33;99815.25;;;-0.47;93.75
75418;BME280;63997;52.112;5.420;2023-03-08T07:11:59;99800.06;;;-0.45;93.74
75418;BME280;63997;52.112;5.420;2023-03-08T07:14:25;99808.16;;;-0.42;93.62
75418;BME280;63997;52.112;5.420;2023-03-08T07:16:52;99812.31;;;-0.41;93.71
75418;BME280;63997;52.112;5.420;2023-03-08T07:19:18;99802.94;;;-0.42;93.59
75418;BME280;63997;52.112;5.420;2023-03-08T07:21:44;99793.53;;;-0.43;93.62
75418;BME280;63997;52.112;5.420;2023-03-08T07:24:11;99794.81;;;-0.40;93.52
75418;BME280;63997;52.112;5.420;2023-03-08T07:26:38;99795.56;;;-0.35;93.84
75418;BME280;63997;52.112;5.420;2023-03-08T07:29:04;99793.16;;;-0.26;93.58
75418;BME280;63997;52.112;5.420;2023-03-08T07:31:30;99799.69;;;-0.29;93.43
75418;BME280;63997;52.112;5.420;2023-03-08T07:34:02;99799.16;;;-0.25;93.40
75418;BME280;63997;52.112;5.420;2023-03-08T07:36:29;99794.41;;;-0.18;93.44
75418;BME280;63997;52.112;5.420;2023-03-08T07:38:55;99794.69;;;-0.20;93.29
75418;BME280;63997;52.112;5.420;2023-03-08T07:41:21;99796.53;;;-0.20;93.18
75418;BME280;63997;52.112;5.420;2023-03-08T07:43:48;99784.72;;;-0.18;93.04
75418;BME280;63997;52.112;5.420;2023-03-08T07:46:14;99776.63;;;-0.16;92.98
75418;BME280;63997;52.112;5.420;2023-03-08T07:48:41;99769.78;;;-0.12;93.18
75418;BME280;63997;52.112;5.420;2023-03-08T07:51:07;99774.97;;;-0.07;93.37
75418;BME280;63997;52.112;5.420;2023-03-08T07:53:36;99770.78;;;-0.03;93.27
75418;BME280;63997;52.112;5.420;2023-03-08T07:56:02;99764.19;;;-0.01;93.14
75418;BME280;63997;52.112;5.420;2023-03-08T07:58:29;99756.66;;;-0.02;92.95
75418;BME280;63997;52.112;5.420;2023-03-08T08:00:55;99755.34;;;0.01;93.00
75418;BME280;63997;52.112;5.420;2023-03-08T08:03:22;99755.59;;;-0.01;93.03
75418;BME280;63997;52.112;5.420;2023-03-08T08:05:48;99750.34;;;-0.01;92.76
75418;BME280;63997;52.112;5.420;2023-03-08T08:08:14;99746.72;;;0.00;93.09
75418;BME280;63997;52.112;5.420;2023-03-08T08:10:42;99746.72;;;0.00;92.93
75418;BME280;63997;52.112;5.420;2023-03-08T08:13:08;99740.63;;;0.05;92.95
75418;BME280;63997;52.112;5.420;2023-03-08T08:15:34;99746.63;;;0.05;92.90
75418;BME280;63997;52.112;5.420;2023-03-08T08:18:01;99738.75;;;0.10;93.11
75418;BME280;63997;52.112;5.420;2023-03-08T08:20:29;99742.34;;;0.19;93.19
75418;BME280;63997;52.112;5.420;2023-03-08T08:22:55;99738.63;;;0.25;93.00
75418;BME280;63997;52.112;5.420;2023-03-08T08:25:22;99741.19;;;0.31;93.12
75418;BME280;63997;52.112;5.420;2023-03-08T08:27:49;99728.38;;;0.29;92.99
75418;BME280;63997;52.112;5.420;2023-03-08T08:30:17;99730.16;;;0.34;93.10
75418;BME280;63997;52.112;5.420;2023-03-08T08:32:43;99730.63;;;0.41;93.13
75418;BME280;63997;52.112;5.420;2023-03-08T08:35:10;99731.06;;;0.48;93.05
75418;BME280;63997;52.112;5.420;2023-03-08T08:37:37;99728.44;;;0.48;92.87
75418;BME280;63997;52.112;5.420;2023-03-08T08:40:06;99725.28;;;0.51;92.80
75418;BME280;63997;52.112;5.420;2023-03-08T08:42:36;99728.59;;;0.57;92.85
75418;BME280;63997;52.112;5.420;2023-03-08T08:45:03;99727.19;;;0.64;92.74
75418;BME280;63997;52.112;5.420;2023-03-08T08:47:31;99730.31;;;0.66;92.58
75418;BME280;63997;52.112;5.420;2023-03-08T08:50:01;99722.41;;;0.71;92.51
75418;BME280;63997;52.112;5.420;2023-03-08T08:52:27;99721.28;;;0.77;92.42
75418;BME280;63997;52.112;5.420;2023-03-08T08:54:54;99726.25;;;0.79;92.45
75418;BME280;63997;52.112;5.420;2023-03-08T08:57:21;99717.03;;;0.82;92.24
75418;BME280;63997;52.112;5.420;2023-03-08T08:59:48;99722.50;;;0.85;92.33
75418;BME280;63997;52.112;5.420;2023-03-08T09:02:14;99717.28;;;0.85;92.20
75418;BME280;63997;52.112;5.420;2023-03-08T09:04:41;99711.03;;;0.81;92.13
75418;BME280;63997;52.112;5.420;2023-03-08T09:07:07;99708.91;;;0.83;92.12
75418;BME280;63997;52.112;5.420;2023-03-08T09:09:34;99705.72;;;0.86;92.04
75418;BME280;63997;52.112;5.420;2023-03-08T09:12:00;99708.06;;;0.88;92.16
75418;BME280;63997;52.112;5.420;2023-03-08T09:14:27;99716.91;;;0.92;92.10
75418;BME280;63997;52.112;5.420;2023-03-08T09:16:53;99723.16;;;0.96;91.83
75418;BME280;63997;52.112;5.420;2023-03-08T09:19:20;99714.22;;;0.97;92.01
75418;BME280;63997;52.112;5.420;2023-03-08T09:21:46;99713.66;;;1.00;91.92
75418;BME280;63997;52.112;5.420;2023-03-08T09:24:13;99712.31;;;1.02;91.88
75418;BME280;63997;52.112;5.420;2023-03-08T09:26:39;99716.78;;;1.02;91.75
75418;BME280;63997;52.112;5.420;2023-03-08T09:29:06;99702.91;;;1.01;91.66
75418;BME280;63997;52.112;5.420;2023-03-08T09:31:35;99699.72;;;1.04;91.68
75418;BME280;63997;52.112;5.420;2023-03-08T09:34:03;99689.41;;;1.13;91.68
75418;BME280;63997;52.112;5.420;2023-03-08T09:36:35;99696.88;;;1.20;91.88
75418;BME280;63997;52.112;5.420;2023-03-08T09:39:02;99673.81;;;1.22;91.54
75418;BME280;63997;52.112;5.420;2023-03-08T09:41:49;99660.16;;;1.25;91.57
75418;BME280;63997;52.112;5.420;2023-03-08T09:49:49;99648.47;;;1.50;91.13
75418;BME280;63997;52.112;5.420;2023-03-08T09:54:50;99646.09;;;1.67;91.14
75418;BME280;63997;52.112;5.420;2023-03-08T09:57:23;99648.75;;;1.81;90.99
75418;BME280;63997;52.112;5.420;2023-03-08T09:59:58;99634.66;;;1.91;90.96
75418;BME280;63997;52.112;5.420;2023-03-08T10:05:25;99626.03;;;2.04;90.36
75418;BME280;63997;52.112;5.420;2023-03-08T10:08:04;99632.81;;;2.19;90.12
75418;BME280;63997;52.112;5.420;2023-03-08T10:10:47;99651.47;;;2.31;89.82
75418;BME280;63997;52.112;5.420;2023-03-08T10:13:26;99644.38;;;2.31;89.28
75418;BME280;63997;52.112;5.420;2023-03-08T10:18:45;99636.06;;;2.52;88.92
75418;BME280;63997;52.112;5.420;2023-03-08T10:21:17;99638.19;;;2.63;88.86
75418;BME280;63997;52.112;5.420;2023-03-08T10:23:47;99633.50;;;2.74;88.23
75418;BME280;63997;52.112;5.420;2023-03-08T10:26:14;99634.69;;;2.68;87.74
75418;BME280;63997;52.112;5.420;2023-03-08T10:28:41;99640.53;;;2.65;87.55
75418;BME280;63997;52.112;5.420;2023-03-08T10:31:41;99628.84;;;2.71;87.51
75418;BME280;63997;52.112;5.420;2023-03-08T10:34:14;99630.72;;;2.57;87.08
75418;BME280;63997;52.112;5.420;2023-03-08T10:37:02;99628.09;;;2.57;87.13
75418;BME280;63997;52.112;5.420;2023-03-08T10:39:29;99618.00;;;2.64;87.38
75418;BME280;63997;52.112;5.420;2023-03-08T10:42:00;99609.72;;;2.57;87.10
75418;BME280;63997;52.112;5.420;2023-03-08T10:44:35;99595.38;;;2.54;87.46
75418;BME280;63997;52.112;5.420;2023-03-08T10:50:01;99586.66;;;2.31;87.37
75418;BME280;63997;52.112;5.420;2023-03-08T10:52:27;99577.31;;;2.39;87.45
75418;BME280;63997;52.112;5.420;2023-03-08T10:55:04;99572.16;;;2.48;87.39
75418;BME280;63997;52.112;5.420;2023-03-08T10:57:31;99579.06;;;2.44;87.03
75418;BME280;63997;52.112;5.420;2023-03-08T11:00:03;99584.91;;;2.63;87.09
75418;BME280;63997;52.112;5.420;2023-03-08T11:02:37;99591.09;;;2.81;86.42
75418;BME280;63997;52.112;5.420;2023-03-08T11:05:17;99597.84;;;2.96;86.34
75418;BME280;63997;52.112;5.420;2023-03-08T11:07:55;99594.38;;;3.09;85.77
75418;BME280;63997;52.112;5.420;2023-03-08T11:10:25;99593.66;;;3.17;85.45
75418;BME280;63997;52.112;5.420;2023-03-08T11:15:49;99597.91;;;3.27;84.75
75418;BME280;63997;52.112;5.420;2023-03-08T11:24:27;99607.03;;;3.07;84.04
75418;BME280;63997;52.112;5.420;2023-03-08T11:27:12;99617.06;;;3.05;83.50
75418;BME280;63997;52.112;5.420;2023-03-08T11:30:02;99609.72;;;2.93;83.22
75418;BME280;63997;52.112;5.420;2023-03-08T11:38:24;99579.63;;;2.77;83.13
75418;BME280;63997;52.112;5.420;2023-03-08T11:46:56;99587.44;;;2.90;82.92
75418;BME280;63997;52.112;5.420;2023-03-08T11:55:30;99566.09;;;3.06;83.06
75418;BME280;63997;52.112;5.420;2023-03-08T11:58:08;99543.09;;;3.11;83.16
75418;BME280;63997;52.112;5.420;2023-03-08T12:00:39;99545.41;;;3.13;82.57
75418;BME280;63997;52.112;5.420;2023-03-08T12:05:46;99545.03;;;3.28;83.13
75418;BME280;63997;52.112;5.420;2023-03-08T12:08:33;99536.06;;;3.29;82.07
75418;BME280;63997;52.112;5.420;2023-03-08T12:11:05;99540.25;;;3.30;82.56
75418;BME280;63997;52.112;5.420;2023-03-08T12:14:00;99555.41;;;3.33;81.95
75418;BME280;63997;52.112;5.420;2023-03-08T12:16:39;99546.56;;;3.21;81.49
75418;BME280;63997;52.112;5.420;2023-03-08T12:24:39;99520.81;;;3.31;81.44
75418;BME280;63997;52.112;5.420;2023-03-08T12:27:21;99531.13;;;3.28;81.01
75418;BME280;63997;52.112;5.420;2023-03-08T12:29:55;99524.66;;;3.34;81.39
75418;BME280;63997;52.112;5.420;2023-03-08T12:32:25;99522.22;;;3.46;81.09
75418;BME280;63997;52.112;5.420;2023-03-08T12:35:48;99513.31;;;3.56;81.43
75418;BME280;63997;52.112;5.420;2023-03-08T12:38:49;99513.19;;;3.69;81.05
75418;BME280;63997;52.112;5.420;2023-03-08T12:40:52;99523.69;;;3.61;80.58
75418;BME280;63997;52.112;5.420;2023-03-08T12:45:46;99538.06;;;3.63;80.01
75418;BME280;63997;52.112;5.420;2023-03-08T12:48:21;99542.56;;;3.63;80.28
75418;BME280;63997;52.112;5.420;2023-03-08T12:53:30;99552.81;;;3.42;79.11
75418;BME280;63997;52.112;5.420;2023-03-08T12:56:02;99541.47;;;3.24;79.34
75418;BME280;63997;52.112;5.420;2023-03-08T12:58:31;99539.91;;;3.23;79.51
75418;BME280;63997;52.112;5.420;2023-03-08T13:01:01;99522.59;;;3.22;79.37
75418;BME280;63997;52.112;5.420;2023-03-08T13:03:36;99514.72;;;3.22;79.18
75418;BME280;63997;52.112;5.420;2023-03-08T13:06:36;99500.63;;;3.18;79.19
75418;BME280;63997;52.112;5.420;2023-03-08T13:09:21;99514.41;;;3.24;79.56
75418;BME280;63997;52.112;5.420;2023-03-08T13:12:20;99511.84;;;3.32;79.92
75418;BME280;63997;52.112;5.420;2023-03-08T13:14:46;99517.44;;;3.39;79.78
75418;BME280;63997;52.112;5.420;2023-03-08T13:17:29;99518.38;;;3.43;79.80
75418;BME280;63997;52.112;5.420;2023-03-08T13:20:01;99526.84;;;3.40;79.32
75418;BME280;63997;52.112;5.420;2023-03-08T13:22:36;99524.53;;;3.39;79.34
75418;BME280;63997;52.112;5.420;2023-03-08T13:25:13;99521.91;;;3.39;79.66
75418;BME280;63997;52.112;5.420;2023-03-08T13:28:03;99525.94;;;3.45;79.49
75418;BME280;63997;52.112;5.420;2023-03-08T13:33:12;99529.34;;;3.45;79.64
75418;BME280;63997;52.112;5.420;2023-03-08T13:35:39;99528.13;;;3.52;79.44
75418;BME280;63997;52.112;5.420;2023-03-08T13:38:06;99518.88;;;3.54;79.25
75418;BME280;63997;52.112;5.420;2023-03-08T13:40:32;99521.03;;;3.52;79.20
75418;BME280;63997;52.112;5.420;2023-03-08T13:43:01;99516.38;;;3.49;79.02
75418;BME280;63997;52.112;5.420;2023-03-08T13:45:30;99519.66;;;3.55;79.43
75418;BME280;63997;52.112;5.420;2023-03-08T13:47:59;99512.69;;;3.59;79.66
75418;BME280;63997;52.112;5.420;2023-03-08T13:50:31;99514.72;;;3.62;79.80
75418;BME280;63997;52.112;5.420;2023-03-08T13:52:59;99509.91;;;3.64;79.86
75418;BME280;63997;52.112;5.420;2023-03-08T13:55:33;99512.56;;;3.64;80.27
75418;BME280;63997;52.112;5.420;2023-03-08T13:58:01;99507.28;;;3.64;80.08
75418;BME280;63997;52.112;5.420;2023-03-08T14:00:32;99499.13;;;3.65;80.27
75418;BME280;63997;52.112;5.420;2023-03-08T14:03:02;99496.78;;;3.64;80.55
75418;BME280;63997;52.112;5.420;2023-03-08T14:05:38;99493.09;;;3.65;80.36
75418;BME280;63997;52.112;5.420;2023-03-08T14:08:20;99498.63;;;3.63;80.85
75418;BME280;63997;52.112;5.420;2023-03-08T14:10:51;99503.13;;;3.63;80.87
75418;BME280;63997;52.112;5.420;2023-03-08T14:13:24;99493.22;;;3.60;81.02
75418;BME280;63997;52.112;5.420;2023-03-08T14:15:54;99490.59;;;3.60;81.16
75418;BME280;63997;52.112;5.420;2023-03-08T14:18:23;99489.19;;;3.62;81.05